sensor_id;sensor_type;location;lat;lon;timestamp;P1;durP1;ratioP1;P2;durP2;ratioP2
13733;SDS011;43298;52.560;13.508;2023-04-01T00:00:27;9.35;;;8.95;;
13733;SDS011;43298;52.560;13.508;2023-04-01T00:02:53;8.60;;;8.23;;
13733;SDS011;43298;52.560;13.508;2023-04-01T00:05:19;8.88;;;8.48;;
13733;SDS011;43298;52.560;13.508;2023-04-01T00:07:46;10.55;;;9.95;;
13733;SDS011;43298;52.560;13.508;2023-04-01T00:10:12;8.43;;;8.10;;
13733;SDS011;43298;52.560;13.508;2023-04-01T00:12:39;9.15;;;8.75;;
13733;SDS011;43298;52.560;13.508;2023-04-01T00:15:06;9.43;;;8.70;;
13733;SDS011;43298;52.560;13.508;2023-04-01T00:17:35;9.75;;;9.27;;
13733;SDS011;43298;52.560;13.508;2023-04-01T00:20:02;8.02;;;7.70;;
13733;SDS011;43298;52.560;13.508;2023-04-01T00:22:28;9.32;;;8.93;;
13733;SDS011;43298;52.560;13.508;2023-04-01T00:24:54;10.40;;;9.90;;
13733;SDS011;43298;52.560;13.508;2023-04-01T00:27:20;10.02;;;9.43;;
13733;SDS011;43298;52.560;13.508;2023-04-01T00:29:46;8.77;;;8.38;;
13733;SDS011;43298;52.560;13.508;2023-04-01T00:32:12;9.18;;;8.65;;
13733;SDS011;43298;52.560;13.508;2023-04-01T00:34:39;9.15;;;8.75;;
13733;SDS011;43298;52.560;13.508;2023-04-01T00:37:06;9.57;;;9.18;;
13733;SDS011;43298;52.560;13.508;2023-04-01T00:39:33;8.68;;;8.27;;
13733;SDS011;43298;52.560;13.508;2023-04-01T00:42:00;9.40;;;9.00;;
13733;SDS011;43298;52.560;13.508;2023-04-01T00:44:28;8.95;;;8.55;;
13733;SDS011;43298;52.560;13.508;2023-04-01T00:46:57;9.63;;;9.13;;
13733;SDS011;43298;52.560;13.508;2023-04-01T00:49:25;9.00;;;8.60;;
13733;SDS011;43298;52.560;13.508;2023-04-01T00:51:56;8.35;;;8.05;;
13733;SDS011;43298;52.560;13.508;2023-04-01T00:54:24;9.10;;;8.70;;
13733;SDS011;43298;52.560;13.508;2023-04-01T00:56:53;8.50;;;8.05;;
13733;SDS011;43298;52.560;13.508;2023-04-01T00:59:25;8.80;;;8.38;;
13733;SDS011;43298;52.560;13.508;2023-04-01T01:02:00;8.50;;;8.10;;
13733;SDS011;43298;52.560;13.508;2023-04-01T01:04:29;8.60;;;8.20;;
13733;SDS011;43298;52.560;13.508;2023-04-01T01:21:06;8.15;;;7.85;;
13733;SDS011;43298;52.560;13.508;2023-04-01T01:38:12;8.13;;;7.72;;
13733;SDS011;43298;52.560;13.508;2023-04-01T01:40:42;9.02;;;8.63;;
13733;SDS011;43298;52.560;13.508;2023-04-01T01:43:12;8.75;;;8.35;;
13733;SDS011;43298;52.560;13.508;2023-04-01T01:45:44;8.68;;;8.05;;
13733;SDS011;43298;52.560;13.508;2023-04-01T01:48:16;8.57;;;8.18;;
13733;SDS011;43298;52.560;13.508;2023-04-01T01:50:43;9.40;;;8.90;;
13733;SDS011;43298;52.560;13.508;2023-04-01T01:53:11;8.23;;;7.93;;
13733;SDS011;43298;52.560;13.508;2023-04-01T01:55:39;8.88;;;8.48;;
13733;SDS011;43298;52.560;13.508;2023-04-01T02:00:44;9.40;;;9.00;;
13733;SDS011;43298;52.560;13.508;2023-04-01T02:03:24;8.68;;;8.15;;
13733;SDS011;43298;52.560;13.508;2023-04-01T02:05:54;8.55;;;8.05;;
13733;SDS011;43298;52.560;13.508;2023-04-01T02:08:26;8.85;;;8.40;;
13733;SDS011;43298;52.560;13.508;2023-04-01T02:11:10;9.40;;;9.00;;
13733;SDS011;43298;52.560;13.508;2023-04-01T02:13:42;10.57;;;7.97;;
13733;SDS011;43298;52.560;13.508;2023-04-01T02:19:32;8.32;;;8.02;;
13733;SDS011;43298;52.560;13.508;2023-04-01T02:22:11;8.68;;;8.27;;
13733;SDS011;43298;52.560;13.508;2023-04-01T02:24:42;8.20;;;7.90;;
13733;SDS011;43298;52.560;13.508;2023-04-01T02:27:11;9.02;;;8.63;;
13733;SDS011;43298;52.560;13.508;2023-04-01T02:29:37;9.15;;;8.75;;
13733;SDS011;43298;52.560;13.508;2023-04-01T02:32:03;8.45;;;8.05;;
13733;SDS011;43298;52.560;13.508;2023-04-01T02:34:30;8.23;;;7.88;;
13733;SDS011;43298;52.560;13.508;2023-04-01T02:36:57;9.20;;;8.80;;
13733;SDS011;43298;52.560;13.508;2023-04-01T02:39:23;7.97;;;7.57;;
13733;SDS011;43298;52.560;13.508;2023-04-01T02:41:51;8.35;;;7.95;;
13733;SDS011;43298;52.560;13.508;2023-04-01T02:44:17;9.02;;;8.63;;
13733;SDS011;43298;52.560;13.508;2023-04-01T02:46:43;8.13;;;7.82;;
13733;SDS011;43298;52.560;13.508;2023-04-01T02:49:09;8.27;;;7.88;;
13733;SDS011;43298;52.560;13.508;2023-04-01T02:51:35;8.95;;;8.50;;
13733;SDS011;43298;52.560;13.508;2023-04-01T02:54:01;9.00;;;8.60;;
13733;SDS011;43298;52.560;13.508;2023-04-01T02:56:26;7.95;;;7.55;;
13733;SDS011;43298;52.560;13.508;2023-04-01T02:58:53;9.50;;;8.85;;
13733;SDS011;43298;52.560;13.508;2023-04-01T03:01:19;9.38;;;8.98;;
13733;SDS011;43298;52.560;13.508;2023-04-01T03:03:46;8.85;;;8.45;;
13733;SDS011;43298;52.560;13.508;2023-04-01T03:06:12;8.48;;;8.07;;
13733;SDS011;43298;52.560;13.508;2023-04-01T03:08:40;8.57;;;7.78;;
13733;SDS011;43298;52.560;13.508;2023-04-01T03:11:06;7.50;;;7.20;;
13733;SDS011;43298;52.560;13.508;2023-04-01T03:13:32;8.48;;;8.07;;
13733;SDS011;43298;52.560;13.508;2023-04-01T03:15:58;8.95;;;8.55;;
13733;SDS011;43298;52.560;13.508;2023-04-01T03:18:24;8.98;;;8.57;;
13733;SDS011;43298;52.560;13.508;2023-04-01T03:20:50;7.78;;;7.45;;
13733;SDS011;43298;52.560;13.508;2023-04-01T03:23:15;9.18;;;8.77;;
13733;SDS011;43298;52.560;13.508;2023-04-01T03:25:44;8.88;;;8.48;;
13733;SDS011;43298;52.560;13.508;2023-04-01T03:28:10;9.07;;;8.68;;
13733;SDS011;43298;52.560;13.508;2023-04-01T03:30:37;9.10;;;8.60;;
13733;SDS011;43298;52.560;13.508;2023-04-01T03:33:03;7.90;;;7.60;;
13733;SDS011;43298;52.560;13.508;2023-04-01T03:35:29;8.35;;;8.00;;
13733;SDS011;43298;52.560;13.508;2023-04-01T03:37:55;8.93;;;8.43;;
13733;SDS011;43298;52.560;13.508;2023-04-01T03:40:21;8.40;;;8.10;;
13733;SDS011;43298;52.560;13.508;2023-04-01T03:42:47;8.18;;;7.80;;
13733;SDS011;43298;52.560;13.508;2023-04-01T03:45:13;8.73;;;8.32;;
13733;SDS011;43298;52.560;13.508;2023-04-01T03:47:40;7.38;;;7.07;;
13733;SDS011;43298;52.560;13.508;2023-04-01T03:50:06;8.73;;;8.32;;
13733;SDS011;43298;52.560;13.508;2023-04-01T03:52:33;10.07;;;9.50;;
13733;SDS011;43298;52.560;13.508;2023-04-01T03:55:00;7.93;;;7.63;;
13733;SDS011;43298;52.560;13.508;2023-04-01T03:57:26;8.55;;;8.20;;
13733;SDS011;43298;52.560;13.508;2023-04-01T03:59:52;8.02;;;7.72;;
13733;SDS011;43298;52.560;13.508;2023-04-01T04:02:19;8.80;;;8.40;;
13733;SDS011;43298;52.560;13.508;2023-04-01T04:04:44;10.25;;;9.75;;
13733;SDS011;43298;52.560;13.508;2023-04-01T04:07:11;7.57;;;7.28;;
13733;SDS011;43298;52.560;13.508;2023-04-01T04:09:37;9.07;;;8.68;;
13733;SDS011;43298;52.560;13.508;2023-04-01T04:12:03;9.43;;;8.75;;
13733;SDS011;43298;52.560;13.508;2023-04-01T04:14:30;9.07;;;8.68;;
13733;SDS011;43298;52.560;13.508;2023-04-01T04:16:56;8.52;;;8.13;;
13733;SDS011;43298;52.560;13.508;2023-04-01T04:19:22;8.82;;;8.43;;
13733;SDS011;43298;52.560;13.508;2023-04-01T04:21:48;8.60;;;8.20;;
13733;SDS011;43298;52.560;13.508;2023-04-01T04:24:14;8.05;;;7.65;;
13733;SDS011;43298;52.560;13.508;2023-04-01T04:26:40;8.48;;;8.07;;
13733;SDS011;43298;52.560;13.508;2023-04-01T04:29:06;8.70;;;8.30;;
13733;SDS011;43298;52.560;13.508;2023-04-01T04:31:31;7.93;;;7.63;;
13733;SDS011;43298;52.560;13.508;2023-04-01T04:33:58;7.63;;;7.25;;
13733;SDS011;43298;52.560;13.508;2023-04-01T04:36:28;8.65;;;8.25;;
13733;SDS011;43298;52.560;13.508;2023-04-01T04:38:53;8.82;;;8.43;;
13733;SDS011;43298;52.560;13.508;2023-04-01T04:41:19;8.68;;;8.27;;
13733;SDS011;43298;52.560;13.508;2023-04-01T04:43:53;9.55;;;8.95;;
13733;SDS011;43298;52.560;13.508;2023-04-01T04:46:21;8.85;;;8.43;;
13733;SDS011;43298;52.560;13.508;2023-04-01T04:48:48;8.55;;;8.15;;
13733;SDS011;43298;52.560;13.508;2023-04-01T04:51:14;7.57;;;7.28;;
13733;SDS011;43298;52.560;13.508;2023-04-01T04:53:42;8.18;;;7.82;;
13733;SDS011;43298;52.560;13.508;2023-04-01T04:56:08;7.72;;;7.43;;
13733;SDS011;43298;52.560;13.508;2023-04-01T04:58:34;8.57;;;8.13;;
13733;SDS011;43298;52.560;13.508;2023-04-01T05:01:05;7.45;;;7.13;;
13733;SDS011;43298;52.560;13.508;2023-04-01T05:03:33;7.78;;;7.47;;
13733;SDS011;43298;52.560;13.508;2023-04-01T05:05:59;7.80;;;7.40;;
13733;SDS011;43298;52.560;13.508;2023-04-01T05:08:25;8.48;;;8.07;;
13733;SDS011;43298;52.560;13.508;2023-04-01T05:10:51;7.97;;;7.68;;
13733;SDS011;43298;52.560;13.508;2023-04-01T05:13:16;8.60;;;8.20;;
13733;SDS011;43298;52.560;13.508;2023-04-01T05:15:42;8.52;;;8.15;;
13733;SDS011;43298;52.560;13.508;2023-04-01T05:18:08;7.38;;;7.05;;
13733;SDS011;43298;52.560;13.508;2023-04-01T05:20:33;7.65;;;7.30;;
13733;SDS011;43298;52.560;13.508;2023-04-01T05:22:59;8.30;;;7.90;;
13733;SDS011;43298;52.560;13.508;2023-04-01T05:25:26;8.50;;;8.10;;
13733;SDS011;43298;52.560;13.508;2023-04-01T05:27:52;8.07;;;7.72;;
13733;SDS011;43298;52.560;13.508;2023-04-01T05:30:18;8.55;;;8.18;;
13733;SDS011;43298;52.560;13.508;2023-04-01T05:32:45;8.40;;;8.00;;
13733;SDS011;43298;52.560;13.508;2023-04-01T05:35:10;7.70;;;7.40;;
13733;SDS011;43298;52.560;13.508;2023-04-01T05:37:36;7.90;;;7.60;;
13733;SDS011;43298;52.560;13.508;2023-04-01T05:40:03;8.38;;;7.97;;
13733;SDS011;43298;52.560;13.508;2023-04-01T05:42:30;8.43;;;8.02;;
13733;SDS011;43298;52.560;13.508;2023-04-01T05:44:55;8.55;;;8.15;;
13733;SDS011;43298;52.560;13.508;2023-04-01T05:47:21;8.10;;;7.70;;
13733;SDS011;43298;52.560;13.508;2023-04-01T05:49:47;8.35;;;7.90;;
13733;SDS011;43298;52.560;13.508;2023-04-01T05:52:13;8.40;;;8.00;;
13733;SDS011;43298;52.560;13.508;2023-04-01T05:54:39;7.75;;;7.45;;
13733;SDS011;43298;52.560;13.508;2023-04-01T05:57:05;8.73;;;8.20;;
13733;SDS011;43298;52.560;13.508;2023-04-01T05:59:31;9.02;;;8.63;;
13733;SDS011;43298;52.560;13.508;2023-04-01T06:01:57;8.85;;;8.45;;
13733;SDS011;43298;52.560;13.508;2023-04-01T06:04:23;9.25;;;8.75;;
13733;SDS011;43298;52.560;13.508;2023-04-01T06:06:50;8.65;;;8.25;;
13733;SDS011;43298;52.560;13.508;2023-04-01T06:09:23;8.32;;;7.93;;
13733;SDS011;43298;52.560;13.508;2023-04-01T06:21:07;8.02;;;7.63;;
13733;SDS011;43298;52.560;13.508;2023-04-01T06:30:25;8.95;;;8.55;;
13733;SDS011;43298;52.560;13.508;2023-04-01T06:36:22;9.13;;;8.65;;
13733;SDS011;43298;52.560;13.508;2023-04-01T06:39:06;9.27;;;8.88;;
13733;SDS011;43298;52.560;13.508;2023-04-01T06:53:14;7.70;;;7.40;;
13733;SDS011;43298;52.560;13.508;2023-04-01T06:56:27;8.50;;;8.10;;
13733;SDS011;43298;52.560;13.508;2023-04-01T06:59:10;8.30;;;8.00;;
13733;SDS011;43298;52.560;13.508;2023-04-01T07:04:35;9.48;;;8.93;;
13733;SDS011;43298;52.560;13.508;2023-04-01T07:07:29;8.30;;;7.90;;
13733;SDS011;43298;52.560;13.508;2023-04-01T07:10:31;8.48;;;8.07;;
13733;SDS011;43298;52.560;13.508;2023-04-01T07:13:00;8.75;;;8.35;;
13733;SDS011;43298;52.560;13.508;2023-04-01T07:15:39;8.27;;;7.88;;
13733;SDS011;43298;52.560;13.508;2023-04-01T07:18:13;8.75;;;8.35;;
13733;SDS011;43298;52.560;13.508;2023-04-01T07:20:53;8.13;;;7.78;;
13733;SDS011;43298;52.560;13.508;2023-04-01T07:23:24;8.52;;;8.13;;
13733;SDS011;43298;52.560;13.508;2023-04-01T07:26:38;8.40;;;8.00;;
13733;SDS011;43298;52.560;13.508;2023-04-01T07:28:56;8.52;;;8.13;;
13733;SDS011;43298;52.560;13.508;2023-04-01T07:51:22;8.77;;;8.38;;
13733;SDS011;43298;52.560;13.508;2023-04-01T07:54:18;8.48;;;8.07;;
13733;SDS011;43298;52.560;13.508;2023-04-01T07:57:07;9.02;;;8.60;;
13733;SDS011;43298;52.560;13.508;2023-04-01T08:02:52;9.55;;;9.10;;
13733;SDS011;43298;52.560;13.508;2023-04-01T08:08:43;11.60;;;11.00;;
13733;SDS011;43298;52.560;13.508;2023-04-01T08:14:32;11.30;;;10.50;;
13733;SDS011;43298;52.560;13.508;2023-04-01T08:20:11;9.85;;;9.35;;
13733;SDS011;43298;52.560;13.508;2023-04-01T08:22:53;10.25;;;9.70;;
13733;SDS011;43298;52.560;13.508;2023-04-01T08:25:40;11.13;;;10.38;;
13733;SDS011;43298;52.560;13.508;2023-04-01T08:28:26;11.52;;;10.82;;
13733;SDS011;43298;52.560;13.508;2023-04-01T08:31:00;11.73;;;11.13;;
13733;SDS011;43298;52.560;13.508;2023-04-01T08:33:36;11.68;;;10.95;;
13733;SDS011;43298;52.560;13.508;2023-04-01T08:39:12;11.55;;;10.95;;
13733;SDS011;43298;52.560;13.508;2023-04-01T09:08:43;11.38;;;10.73;;
13733;SDS011;43298;52.560;13.508;2023-04-01T09:15:24;10.88;;;10.38;;
13733;SDS011;43298;52.560;13.508;2023-04-01T09:21:03;11.52;;;10.73;;
13733;SDS011;43298;52.560;13.508;2023-04-01T09:40:21;11.63;;;11.13;;
13733;SDS011;43298;52.560;13.508;2023-04-01T09:51:37;11.48;;;10.88;;
13733;SDS011;43298;52.560;13.508;2023-04-01T10:00:44;11.10;;;10.60;;
13733;SDS011;43298;52.560;13.508;2023-04-01T10:24:23;10.50;;;9.95;;
13733;SDS011;43298;52.560;13.508;2023-04-01T10:40:24;10.52;;;10.02;;
13733;SDS011;43298;52.560;13.508;2023-04-01T11:06:46;9.63;;;9.23;;
13733;SDS011;43298;52.560;13.508;2023-04-01T11:22:23;8.90;;;8.50;;
13733;SDS011;43298;52.560;13.508;2023-04-01T11:36:52;9.73;;;9.32;;
13733;SDS011;43298;52.560;13.508;2023-04-01T11:48:12;9.02;;;8.55;;
13733;SDS011;43298;52.560;13.508;2023-04-01T11:54:04;9.32;;;8.85;;
13733;SDS011;43298;52.560;13.508;2023-04-01T12:06:13;9.13;;;8.70;;
13733;SDS011;43298;52.560;13.508;2023-04-01T12:09:17;9.63;;;9.13;;
13733;SDS011;43298;52.560;13.508;2023-04-01T12:12:38;8.85;;;8.45;;
13733;SDS011;43298;52.560;13.508;2023-04-01T12:15:29;9.15;;;8.65;;
13733;SDS011;43298;52.560;13.508;2023-04-01T12:45:21;9.02;;;8.63;;
13733;SDS011;43298;52.560;13.508;2023-04-01T12:50:26;16.33;;;15.52;;
13733;SDS011;43298;52.560;13.508;2023-04-01T12:56:58;9.70;;;9.30;;
13733;SDS011;43298;52.560;13.508;2023-04-01T13:02:37;10.40;;;9.90;;
13733;SDS011;43298;52.560;13.508;2023-04-01T13:23:17;10.32;;;9.82;;
13733;SDS011;43298;52.560;13.508;2023-04-01T13:26:07;10.20;;;9.73;;
13733;SDS011;43298;52.560;13.508;2023-04-01T13:34:21;9.93;;;9.52;;
13733;SDS011;43298;52.560;13.508;2023-04-01T13:45:26;9.55;;;9.10;;
13733;SDS011;43298;52.560;13.508;2023-04-01T13:48:46;10.30;;;9.80;;
13733;SDS011;43298;52.560;13.508;2023-04-01T13:54:29;10.05;;;9.60;;
13733;SDS011;43298;52.560;13.508;2023-04-01T14:28:49;10.30;;;9.80;;
13733;SDS011;43298;52.560;13.508;2023-04-01T14:31:41;9.90;;;9.50;;
13733;SDS011;43298;52.560;13.508;2023-04-01T14:46:34;9.43;;;9.02;;
13733;SDS011;43298;52.560;13.508;2023-04-01T14:49:17;9.68;;;9.20;;
13733;SDS011;43298;52.560;13.508;2023-04-01T14:51:57;8.98;;;8.55;;
13733;SDS011;43298;52.560;13.508;2023-04-01T14:54:51;10.07;;;9.57;;
13733;SDS011;43298;52.560;13.508;2023-04-01T14:59:53;9.73;;;9.30;;
13733;SDS011;43298;52.560;13.508;2023-04-01T15:02:46;8.73;;;8.32;;
13733;SDS011;43298;52.560;13.508;2023-04-01T15:05:48;9.05;;;8.65;;
13733;SDS011;43298;52.560;13.508;2023-04-01T15:12:23;8.98;;;8.57;;
13733;SDS011;43298;52.560;13.508;2023-04-01T15:34:29;11.40;;;10.90;;
13733;SDS011;43298;52.560;13.508;2023-04-01T15:40:02;10.57;;;10.07;;
13733;SDS011;43298;52.560;13.508;2023-04-01T16:00:30;11.07;;;10.57;;
13733;SDS011;43298;52.560;13.508;2023-04-01T16:17:31;12.07;;;11.57;;
13733;SDS011;43298;52.560;13.508;2023-04-01T16:26:06;10.35;;;9.95;;
13733;SDS011;43298;52.560;13.508;2023-04-01T16:31:43;9.63;;;9.23;;
13733;SDS011;43298;52.560;13.508;2023-04-01T16:34:58;10.55;;;10.05;;
13733;SDS011;43298;52.560;13.508;2023-04-01T16:38:05;12.32;;;11.27;;
13733;SDS011;43298;52.560;13.508;2023-04-01T16:43:42;10.18;;;9.77;;
13733;SDS011;43298;52.560;13.508;2023-04-01T16:46:31;14.02;;;13.40;;
13733;SDS011;43298;52.560;13.508;2023-04-01T16:57:43;11.23;;;10.63;;
13733;SDS011;43298;52.560;13.508;2023-04-01T17:20:05;11.60;;;11.00;;
13733;SDS011;43298;52.560;13.508;2023-04-01T17:45:56;11.45;;;10.63;;
13733;SDS011;43298;52.560;13.508;2023-04-01T17:51:40;12.75;;;12.10;;
13733;SDS011;43298;52.560;13.508;2023-04-01T17:57:03;12.57;;;11.80;;
13733;SDS011;43298;52.560;13.508;2023-04-01T18:06:17;10.93;;;10.43;;
13733;SDS011;43298;52.560;13.508;2023-04-01T18:25:38;10.35;;;9.85;;
13733;SDS011;43298;52.560;13.508;2023-04-01T18:39:19;8.40;;;8.07;;
13733;SDS011;43298;52.560;13.508;2023-04-01T18:51:20;10.55;;;10.05;;
13733;SDS011;43298;52.560;13.508;2023-04-01T18:54:23;10.98;;;10.48;;
13733;SDS011;43298;52.560;13.508;2023-04-01T18:57:11;9.68;;;9.27;;
13733;SDS011;43298;52.560;13.508;2023-04-01T19:05:45;10.57;;;9.98;;
13733;SDS011;43298;52.560;13.508;2023-04-01T19:08:33;10.57;;;9.80;;
13733;SDS011;43298;52.560;13.508;2023-04-01T19:12:05;10.20;;;9.80;;
13733;SDS011;43298;52.560;13.508;2023-04-01T19:17:35;11.10;;;10.60;;
13733;SDS011;43298;52.560;13.508;2023-04-01T19:23:44;14.50;;;13.73;;
13733;SDS011;43298;52.560;13.508;2023-04-01T19:26:56;10.40;;;9.90;;
13733;SDS011;43298;52.560;13.508;2023-04-01T19:32:48;11.70;;;11.20;;
13733;SDS011;43298;52.560;13.508;2023-04-01T19:37:59;14.40;;;13.70;;
13733;SDS011;43298;52.560;13.508;2023-04-01T19:40:55;11.00;;;10.50;;
13733;SDS011;43298;52.560;13.508;2023-04-01T19:43:39;11.82;;;11.32;;
13733;SDS011;43298;52.560;13.508;2023-04-01T20:00:59;10.70;;;10.18;;
13733;SDS011;43298;52.560;13.508;2023-04-01T20:03:34;10.85;;;10.35;;
13733;SDS011;43298;52.560;13.508;2023-04-01T20:18:52;10.57;;;10.07;;
13733;SDS011;43298;52.560;13.508;2023-04-01T20:24:04;12.05;;;11.45;;
13733;SDS011;43298;52.560;13.508;2023-04-01T20:27:20;11.65;;;11.05;;
13733;SDS011;43298;52.560;13.508;2023-04-01T20:39:14;11.65;;;11.15;;
13733;SDS011;43298;52.560;13.508;2023-04-01T20:42:16;12.25;;;11.68;;
13733;SDS011;43298;52.560;13.508;2023-04-01T20:47:50;10.77;;;10.27;;
13733;SDS011;43298;52.560;13.508;2023-04-01T20:50:34;11.07;;;10.57;;
13733;SDS011;43298;52.560;13.508;2023-04-01T21:07:34;10.75;;;10.25;;
13733;SDS011;43298;52.560;13.508;2023-04-01T21:19:23;10.60;;;10.10;;
13733;SDS011;43298;52.560;13.508;2023-04-01T21:33:38;11.18;;;10.68;;
13733;SDS011;43298;52.560;13.508;2023-04-01T21:42:00;10.27;;;9.88;;
13733;SDS011;43298;52.560;13.508;2023-04-01T21:47:41;9.75;;;9.35;;
13733;SDS011;43298;52.560;13.508;2023-04-01T21:56:07;9.73;;;9.32;;
13733;SDS011;43298;52.560;13.508;2023-04-01T22:02:39;11.00;;;10.50;;
13733;SDS011;43298;52.560;13.508;2023-04-01T22:20:47;11.85;;;11.35;;
13733;SDS011;43298;52.560;13.508;2023-04-01T22:23:31;13.00;;;12.30;;
13733;SDS011;43298;52.560;13.508;2023-04-01T22:26:07;12.45;;;11.93;;
13733;SDS011;43298;52.560;13.508;2023-04-01T22:29:03;13.30;;;12.70;;
13733;SDS011;43298;52.560;13.508;2023-04-01T22:32:16;25.40;;;12.73;;
13733;SDS011;43298;52.560;13.508;2023-04-01T22:40:58;12.00;;;11.50;;
13733;SDS011;43298;52.560;13.508;2023-04-01T22:43:40;15.93;;;15.23;;
13733;SDS011;43298;52.560;13.508;2023-04-01T22:48:49;12.27;;;11.40;;
13733;SDS011;43298;52.560;13.508;2023-04-01T22:54:31;13.02;;;12.48;;
13733;SDS011;43298;52.560;13.508;2023-04-01T22:57:28;13.10;;;12.50;;
13733;SDS011;43298;52.560;13.508;2023-04-01T23:05:47;13.52;;;12.95;;
13733;SDS011;43298;52.560;13.508;2023-04-01T23:11:08;12.75;;;12.25;;
13733;SDS011;43298;52.560;13.508;2023-04-01T23:13:44;14.30;;;13.60;;
13733;SDS011;43298;52.560;13.508;2023-04-01T23:16:43;12.20;;;11.60;;
13733;SDS011;43298;52.560;13.508;2023-04-01T23:19:35;11.90;;;11.40;;
13733;SDS011;43298;52.560;13.508;2023-04-01T23:22:34;13.48;;;12.80;;
13733;SDS011;43298;52.560;13.508;2023-04-01T23:28:45;11.70;;;11.20;;
13733;SDS011;43298;52.560;13.508;2023-04-01T23:31:26;10.85;;;10.43;;
13733;SDS011;43298;52.560;13.508;2023-04-01T23:36:39;11.25;;;10.75;;
13733;SDS011;43298;52.560;13.508;2023-04-01T23:42:01;11.80;;;11.30;;
13733;SDS011;43298;52.560;13.508;2023-04-01T23:44:32;11.68;;;11.07;;
13733;SDS011;43298;52.560;13.508;2023-04-01T23:47:00;13.05;;;12.35;;
13733;SDS011;43298;52.560;13.508;2023-04-01T23:49:30;11.32;;;10.73;;
13733;SDS011;43298;52.560;13.508;2023-04-01T23:52:12;11.98;;;11.48;;
13733;SDS011;43298;52.560;13.508;2023-04-01T23:54:58;11.80;;;11.30;;
13733;SDS011;43298;52.560;13.508;2023-04-01T23:58:12;19.75;;;18.83;;
